Time;durP1;ratioP1;P1;durP2;ratioP2;P2;SDS_P1;SDS_P2;PMS_P1;PMS_P2;Temp;Humidity;BMP_temperature;BMP_pressure;BME280_temperature;BME280_humidity;BME280_pressure;Samples;Min_cycle;Max_cycle;Signal;HPM_P1;HPM_P2
2023/08/04 00:00:31;;;;;;;4.38;3.85;;;24.40;95.10;;;;;;5059199;28;20416;-71
2023/08/04 00:02:58;;;;;;;6.53;4.15;;;24.40;95.20;;;;;;5055501;28;20455;-71
2023/08/04 00:05:26;;;;;;;5.65;4.07;;;24.50;95.30;;;;;;5056291;28;20408;-71
2023/08/04 00:07:54;;;;;;;5.87;3.83;;;24.50;95.40;;;;;;5055570;28;20514;-71
2023/08/04 00:10:20;;;;;;;8.98;4.25;;;24.50;95.60;;;;;;5057873;28;20907;-71
2023/08/04 00:12:47;;;;;;;4.40;3.87;;;24.50;95.60;;;;;;5058993;28;20425;-71
2023/08/04 00:15:13;;;;;;;5.38;3.97;;;24.50;95.60;;;;;;5056309;28;20534;-71
2023/08/04 00:17:39;;;;;;;4.65;3.92;;;24.50;95.70;;;;;;5057671;28;20471;-71
2023/08/04 00:20:10;;;;;;;5.13;4.13;;;24.60;95.80;;;;;;5058459;28;20502;-71
2023/08/04 00:22:37;;;;;;;5.50;4.30;;;24.60;96.00;;;;;;5047886;28;20404;-72
2023/08/04 00:25:05;;;;;;;5.10;4.30;;;24.60;96.30;;;;;;5053419;28;21030;-71
2023/08/04 00:27:31;;;;;;;6.85;4.03;;;24.60;96.40;;;;;;5059410;28;20411;-71
2023/08/04 00:29:58;;;;;;;5.13;3.90;;;24.60;97.00;;;;;;5052415;28;20433;-71
2023/08/04 00:32:24;;;;;;;5.95;4.00;;;24.50;96.90;;;;;;5059759;28;20416;-71
2023/08/04 00:34:50;;;;;;;5.20;4.00;;;24.50;96.90;;;;;;5072518;28;20798;-71
2023/08/04 00:37:16;;;;;;;4.60;3.85;;;24.50;97.00;;;;;;5058673;28;20425;-71
2023/08/04 00:39:42;;;;;;;6.50;4.00;;;24.50;97.10;;;;;;5057140;28;20443;-71
2023/08/04 00:42:08;;;;;;;6.82;3.97;;;24.50;97.30;;;;;;5056199;28;20502;-71
2023/08/04 00:44:36;;;;;;;5.13;3.72;;;24.40;97.30;;;;;;5057635;28;20452;-71
2023/08/04 00:47:04;;;;;;;4.47;3.70;;;24.40;97.20;;;;;;5057174;28;21148;-71
2023/08/04 00:49:30;;;;;;;6.07;4.07;;;24.40;97.30;;;;;;5055341;28;20501;-71
2023/08/04 00:51:57;;;;;;;4.50;3.70;;;24.40;97.40;;;;;;5055731;28;20417;-71
2023/08/04 00:54:23;;;;;;;4.90;3.60;;;24.40;97.50;;;;;;5058983;28;20925;-71
2023/08/04 00:56:53;;;;;;;4.20;3.80;;;24.40;97.50;;;;;;5054660;28;20417;-72
2023/08/04 00:59:19;;;;;;;6.00;3.75;;;24.40;97.50;;;;;;5049529;28;21081;-71
2023/08/04 01:01:49;;;;;;;4.70;3.60;;;24.40;97.60;;;;;;5050472;28;20843;-71
2023/08/04 01:04:16;;;;;;;7.10;3.80;;;24.40;97.60;;;;;;5056276;28;20407;-71
2023/08/04 01:07:19;;;;;;;5.22;3.83;;;24.40;97.60;;;;;;5065942;28;20953;-72
2023/08/04 01:10:22;;;;;;;6.80;3.85;;;24.40;97.70;;;;;;5069381;28;20848;-72
2023/08/04 01:13:07;;;;;;;4.85;3.70;;;24.40;97.70;;;;;;5056127;28;20861;-72
2023/08/04 01:15:38;;;;;;;5.93;3.78;;;24.40;97.70;;;;;;5055922;28;20419;-72
2023/08/04 01:18:04;;;;;;;4.40;3.80;;;24.30;97.70;;;;;;5058565;28;20416;-72
2023/08/04 01:20:31;;;;;;;10.18;3.72;;;24.30;97.60;;;;;;5055284;28;20417;-72
2023/08/04 01:22:57;;;;;;;4.07;3.43;;;24.30;97.60;;;;;;5058152;28;20451;-72
2023/08/04 01:25:29;;;;;;;6.15;3.80;;;24.30;97.50;;;;;;5050395;28;20515;-72
2023/08/04 01:28:08;;;;;;;4.18;3.35;;;24.30;97.50;;;;;;5053656;28;20412;-72
2023/08/04 01:30:36;;;;;;;5.65;3.53;;;24.30;97.50;;;;;;5052044;28;20492;-72
2023/08/04 01:33:03;;;;;;;5.97;3.60;;;24.30;97.50;;;;;;5062406;28;20407;-72
2023/08/04 01:35:30;;;;;;;4.13;3.40;;;24.20;97.50;;;;;;5052249;28;20493;-72
2023/08/04 01:37:56;;;;;;;6.37;3.50;;;24.30;97.50;;;;;;5049499;28;20535;-72
2023/08/04 01:40:22;;;;;;;4.15;3.20;;;24.20;97.40;;;;;;5052198;28;20451;-72
2023/08/04 01:42:51;;;;;;;4.30;3.50;;;24.20;97.40;;;;;;5057869;28;20511;-71
2023/08/04 01:45:18;;;;;;;5.45;3.65;;;24.20;97.50;;;;;;5057776;28;20816;-70
2023/08/04 01:47:49;;;;;;;4.05;3.53;;;24.30;97.50;;;;;;5052979;28;20416;-70
2023/08/04 01:50:15;;;;;;;5.57;3.42;;;24.30;97.60;;;;;;5054234;28;21170;-70
2023/08/04 01:52:42;;;;;;;5.10;3.60;;;24.30;97.60;;;;;;5056188;28;20495;-70
2023/08/04 01:55:08;;;;;;;5.45;3.55;;;24.30;97.60;;;;;;5071014;28;20826;-70
2023/08/04 01:57:35;;;;;;;4.63;3.60;;;24.30;97.70;;;;;;5047969;28;20764;-70
2023/08/04 02:00:02;;;;;;;4.40;3.70;;;24.30;97.70;;;;;;5040220;28;20527;-70
2023/08/04 02:02:28;;;;;;;3.97;3.60;;;24.30;97.80;;;;;;5052671;28;20941;-70
2023/08/04 02:04:54;;;;;;;5.07;3.90;;;24.30;97.80;;;;;;5052607;28;20506;-70
2023/08/04 02:07:21;;;;;;;4.57;3.50;;;24.30;97.90;;;;;;5053093;28;20463;-70
2023/08/04 02:09:47;;;;;;;6.20;3.50;;;24.30;97.90;;;;;;5054152;28;20423;-69
2023/08/04 02:12:13;;;;;;;4.60;3.55;;;24.20;97.80;;;;;;5052661;28;20431;-70
2023/08/04 02:14:39;;;;;;;6.30;3.75;;;24.20;97.80;;;;;;5039152;28;20408;-70
2023/08/04 02:17:05;;;;;;;4.78;4.00;;;24.10;97.80;;;;;;5054483;28;20461;-70
2023/08/04 02:19:32;;;;;;;4.03;3.40;;;24.20;97.80;;;;;;5068230;28;20471;-70
2023/08/04 02:21:58;;;;;;;7.50;3.80;;;24.20;97.70;;;;;;5036374;28;20409;-70
2023/08/04 02:24:24;;;;;;;6.15;4.20;;;24.30;97.60;;;;;;5056911;28;20467;-70
2023/08/04 02:26:50;;;;;;;5.65;4.20;;;24.30;97.60;;;;;;5060339;28;20418;-70
2023/08/04 02:29:16;;;;;;;4.80;4.00;;;24.20;97.50;;;;;;5063270;28;20462;-70
2023/08/04 02:31:43;;;;;;;4.88;4.20;;;24.20;97.30;;;;;;5049717;28;20456;-70
2023/08/04 02:34:10;;;;;;;7.40;4.30;;;24.20;97.30;;;;;;5036898;28;20405;-70
2023/08/04 02:36:36;;;;;;;5.65;4.10;;;24.20;97.10;;;;;;5046786;28;20398;-70
2023/08/04 02:39:02;;;;;;;8.98;4.60;;;24.20;97.00;;;;;;5047358;28;20414;-70
2023/08/04 02:41:28;;;;;;;4.60;4.10;;;24.20;97.10;;;;;;5042444;28;20419;-70
2023/08/04 02:43:54;;;;;;;6.47;4.53;;;24.20;97.00;;;;;;5057246;28;20519;-70
2023/08/04 02:46:24;;;;;;;5.50;4.10;;;24.20;96.90;;;;;;5055832;28;20921;-70
2023/08/04 02:48:50;;;;;;;4.63;4.22;;;24.20;96.90;;;;;;5055018;28;20415;-70
2023/08/04 02:51:16;;;;;;;7.15;4.50;;;24.20;96.90;;;;;;5071029;28;20441;-70
2023/08/04 02:53:47;;;;;;;5.78;4.22;;;24.10;96.70;;;;;;5056504;28;21022;-70
2023/08/04 02:56:17;;;;;;;7.38;4.18;;;24.10;96.80;;;;;;5057033;28;20583;-69
2023/08/04 02:58:46;;;;;;;5.60;4.18;;;24.10;96.80;;;;;;5054766;28;20403;-70
2023/08/04 03:01:14;;;;;;;6.18;4.60;;;24.00;96.80;;;;;;5054356;28;20431;-70
2023/08/04 03:03:40;;;;;;;10.70;4.40;;;24.00;96.80;;;;;;5056424;28;20417;-70
2023/08/04 03:06:07;;;;;;;6.17;4.37;;;24.00;96.80;;;;;;5064749;28;20443;-70
2023/08/04 03:08:33;;;;;;;5.72;4.30;;;24.00;96.80;;;;;;5055777;28;20446;-70
2023/08/04 03:11:00;;;;;;;6.72;4.57;;;24.00;96.90;;;;;;5054751;28;20428;-70
2023/08/04 03:13:27;;;;;;;9.95;4.47;;;24.00;96.90;;;;;;5052672;28;20453;-70
2023/08/04 03:16:01;;;;;;;5.30;4.10;;;24.00;97.00;;;;;;5055019;28;20466;-70
2023/08/04 03:18:28;;;;;;;10.93;4.32;;;24.00;96.90;;;;;;5056648;28;20563;-70
2023/08/04 03:20:55;;;;;;;7.55;4.53;;;24.00;96.90;;;;;;5045145;28;20443;-70
2023/08/04 03:23:22;;;;;;;8.40;4.22;;;24.00;96.90;;;;;;5058581;28;20509;-70
2023/08/04 03:25:49;;;;;;;10.18;4.50;;;24.00;96.90;;;;;;5058322;28;21085;-70
2023/08/04 03:28:15;;;;;;;6.95;4.45;;;23.90;96.90;;;;;;5053909;28;20477;-70
2023/08/04 03:30:41;;;;;;;7.73;4.47;;;23.90;96.90;;;;;;5057357;28;20464;-70
2023/08/04 03:33:07;;;;;;;6.68;4.25;;;23.90;97.00;;;;;;5058341;28;20862;-71
2023/08/04 03:35:34;;;;;;;9.45;4.57;;;23.90;97.00;;;;;;5055029;28;20409;-70
2023/08/04 03:38:02;;;;;;;5.97;4.43;;;23.90;97.00;;;;;;5041432;28;20411;-70
2023/08/04 03:40:29;;;;;;;7.43;4.60;;;23.90;97.00;;;;;;5073129;28;20427;-70
2023/08/04 03:42:55;;;;;;;6.60;4.40;;;23.90;97.00;;;;;;5070674;28;21170;-70
2023/08/04 03:45:21;;;;;;;6.05;4.35;;;24.00;97.10;;;;;;5038938;28;20519;-70
2023/08/04 03:47:48;;;;;;;6.30;4.22;;;24.00;97.20;;;;;;5053337;28;20415;-69
2023/08/04 03:50:14;;;;;;;7.93;4.45;;;24.00;97.20;;;;;;5053093;28;20425;-69
2023/08/04 03:52:40;;;;;;;7.93;4.07;;;24.00;97.40;;;;;;5052291;28;20412;-69
2023/08/04 03:55:07;;;;;;;5.25;4.28;;;24.00;97.50;;;;;;5057818;28;21469;-69
2023/08/04 03:57:33;;;;;;;4.80;4.05;;;24.00;97.60;;;;;;5055845;28;20405;-69
2023/08/04 04:00:01;;;;;;;7.20;4.50;;;24.00;97.60;;;;;;5056357;28;20490;-69
2023/08/04 04:02:28;;;;;;;7.30;4.45;;;24.00;97.70;;;;;;5060582;28;20411;-69
2023/08/04 04:04:54;;;;;;;5.40;4.10;;;24.10;97.80;;;;;;5055936;28;20410;-69
2023/08/04 04:07:20;;;;;;;7.15;4.00;;;24.00;97.80;;;;;;5056487;28;20565;-69
2023/08/04 04:09:46;;;;;;;6.50;4.38;;;24.10;97.90;;;;;;5059253;28;21345;-69
2023/08/04 04:12:13;;;;;;;6.43;4.70;;;24.10;98.10;;;;;;5058598;28;21251;-70
2023/08/04 04:14:39;;;;;;;5.53;4.13;;;24.00;98.20;;;;;;5055954;28;20497;-70
2023/08/04 04:17:05;;;;;;;4.68;4.15;;;24.10;98.20;;;;;;5060357;28;20407;-70
2023/08/04 04:19:31;;;;;;;5.25;4.20;;;24.10;98.20;;;;;;5055718;28;20502;-70
2023/08/04 04:21:58;;;;;;;5.00;4.43;;;24.10;98.20;;;;;;5060382;28;20511;-69
2023/08/04 04:24:24;;;;;;;6.93;4.30;;;24.10;98.30;;;;;;5062453;28;21076;-69
2023/08/04 04:26:50;;;;;;;4.30;3.90;;;24.20;98.60;;;;;;5061018;28;20455;-70
2023/08/04 04:29:16;;;;;;;4.53;4.00;;;24.20;98.60;;;;;;5053297;28;20740;-70
2023/08/04 04:31:43;;;;;;;4.40;3.92;;;24.20;98.70;;;;;;5061398;28;20412;-69
2023/08/04 04:34:09;;;;;;;5.50;4.20;;;24.20;98.70;;;;;;5047764;28;20449;-69
2023/08/04 04:36:35;;;;;;;5.47;4.15;;;24.20;98.80;;;;;;5042862;28;20392;-69
2023/08/04 04:39:04;;;;;;;8.02;4.05;;;24.30;98.70;;;;;;5056108;28;20415;-69
2023/08/04 04:41:31;;;;;;;6.50;4.10;;;24.30;98.50;;;;;;5053179;28;20426;-69
2023/08/04 04:43:58;;;;;;;5.78;4.10;;;24.30;98.40;;;;;;5059999;28;20502;-70
2023/08/04 04:46:24;;;;;;;4.50;3.70;;;24.40;98.40;;;;;;5051729;28;20945;-69
2023/08/04 04:48:50;;;;;;;6.22;3.92;;;24.40;98.60;;;;;;5052823;28;20426;-69
2023/08/04 04:51:16;;;;;;;4.70;3.80;;;24.40;98.60;;;;;;5056770;28;20498;-69
2023/08/04 04:53:42;;;;;;;7.40;3.67;;;24.50;98.60;;;;;;5055972;28;20442;-69
2023/08/04 04:56:11;;;;;;;5.15;3.60;;;24.50;98.60;;;;;;5059205;28;20412;-69
2023/08/04 04:58:38;;;;;;;4.25;3.85;;;24.60;98.60;;;;;;5075718;28;20404;-69
2023/08/04 05:01:05;;;;;;;5.82;3.60;;;24.60;98.60;;;;;;5053806;28;20421;-70
2023/08/04 05:03:31;;;;;;;4.13;3.72;;;24.70;98.60;;;;;;5056638;28;20496;-70
2023/08/04 05:05:58;;;;;;;5.10;3.83;;;24.70;98.70;;;;;;5056331;28;20446;-70
2023/08/04 05:08:24;;;;;;;5.80;3.85;;;24.70;98.60;;;;;;5042415;28;20515;-69
2023/08/04 05:10:54;;;;;;;5.45;3.70;;;24.80;98.50;;;;;;5055830;28;20447;-70
2023/08/04 05:13:20;;;;;;;4.70;3.60;;;24.80;98.60;;;;;;5090093;28;20421;-70
2023/08/04 05:15:47;;;;;;;6.93;3.72;;;24.90;98.80;;;;;;5058912;28;20422;-70
2023/08/04 05:18:15;;;;;;;4.40;3.42;;;24.90;98.40;;;;;;5052418;28;20446;-69
2023/08/04 05:20:48;;;;;;;5.00;3.53;;;24.90;98.30;;;;;;5054022;28;20408;-69
2023/08/04 05:23:15;;;;;;;5.03;3.90;;;25.00;98.50;;;;;;5043034;28;20498;-69
2023/08/04 05:25:42;;;;;;;5.43;3.60;;;25.00;98.50;;;;;;5051466;28;20418;-69
2023/08/04 05:28:32;;;;;;;4.90;3.75;;;25.10;98.80;;;;;;5052888;28;20420;-69
2023/08/04 05:31:04;;;;;;;5.03;4.00;;;25.10;98.70;;;;;;5057407;28;20414;-69
2023/08/04 05:33:32;;;;;;;6.75;3.60;;;25.20;98.80;;;;;;5054309;28;20441;-69
2023/08/04 05:35:59;;;;;;;6.32;3.65;;;25.20;98.80;;;;;;5055664;28;20500;-69
2023/08/04 05:38:26;;;;;;;4.30;3.55;;;25.30;99.10;;;;;;5049945;28;20409;-69
2023/08/04 05:40:53;;;;;;;6.10;3.67;;;25.30;99.20;;;;;;5052477;28;21186;-69
2023/08/04 05:43:20;;;;;;;5.55;3.80;;;25.40;99.20;;;;;;5057470;28;20877;-69
2023/08/04 05:45:47;;;;;;;4.70;3.85;;;25.50;99.50;;;;;;5072714;28;20940;-69
2023/08/04 05:48:14;;;;;;;4.93;3.90;;;25.60;99.90;;;;;;5053773;28;20414;-69
2023/08/04 05:50:40;;;;;;;6.35;3.90;;;25.60;99.90;;;;;;5071230;28;20513;-69
2023/08/04 05:53:07;;;;;;;7.65;3.95;;;25.80;99.90;;;;;;5054562;28;21642;-69
2023/08/04 05:55:34;;;;;;;6.20;3.85;;;25.90;99.90;;;;;;5054942;28;20502;-69
2023/08/04 05:58:02;;;;;;;6.32;3.83;;;26.00;99.90;;;;;;5038161;28;20411;-69
2023/08/04 06:00:29;;;;;;;5.50;3.60;;;26.10;99.90;;;;;;5053806;28;20542;-69
2023/08/04 06:02:56;;;;;;;6.10;3.75;;;26.10;99.90;;;;;;5067987;28;20444;-69
2023/08/04 06:05:22;;;;;;;7.32;3.97;;;26.20;99.90;;;;;;5052540;28;20940;-70
2023/08/04 06:07:48;;;;;;;7.40;4.22;;;26.30;99.90;;;;;;5056809;28;20779;-70
2023/08/04 06:10:19;;;;;;;7.10;4.00;;;26.40;99.90;;;;;;5055034;28;20452;-69
2023/08/04 06:12:47;;;;;;;8.37;4.27;;;26.50;99.90;;;;;;5038914;28;20409;-69
2023/08/04 06:15:14;;;;;;;9.63;4.03;;;26.50;99.90;;;;;;5057686;28;20785;-69
2023/08/04 06:17:42;;;;;;;8.15;4.00;;;26.60;99.90;;;;;;5054134;28;20406;-69
2023/08/04 06:20:10;;;;;;;7.57;4.07;;;26.70;99.90;;;;;;5041227;28;20415;-69
2023/08/04 06:22:37;;;;;;;7.77;4.40;;;26.70;99.90;;;;;;5051686;28;20408;-69
2023/08/04 06:25:05;;;;;;;10.30;4.32;;;26.80;99.90;;;;;;5058335;28;20504;-69
2023/08/04 06:27:32;;;;;;;8.05;4.00;;;26.80;99.90;;;;;;5055942;28;20504;-69
2023/08/04 06:29:59;;;;;;;5.72;3.90;;;26.90;99.90;;;;;;5052131;28;20420;-69
2023/08/04 06:32:26;;;;;;;8.40;4.20;;;27.00;99.90;;;;;;5053001;28;21167;-70
2023/08/04 06:34:52;;;;;;;7.15;4.18;;;27.00;99.90;;;;;;5045413;28;20401;-70
2023/08/04 06:37:18;;;;;;;6.70;4.00;;;27.10;99.90;;;;;;5058871;28;20429;-70
2023/08/04 06:39:44;;;;;;;9.10;4.50;;;27.10;99.90;;;;;;5052087;28;20409;-70
2023/08/04 06:42:10;;;;;;;7.47;4.18;;;27.20;99.90;;;;;;5060251;28;20443;-70
2023/08/04 06:44:37;;;;;;;6.97;3.92;;;27.30;99.90;;;;;;5061732;28;20410;-70
2023/08/04 06:47:03;;;;;;;7.53;4.10;;;27.30;99.90;;;;;;5060582;28;20823;-70
2023/08/04 06:49:30;;;;;;;6.53;3.70;;;27.40;99.90;;;;;;5059718;28;20540;-70
2023/08/04 06:51:56;;;;;;;7.72;3.85;;;27.40;99.90;;;;;;5057206;28;20497;-70
2023/08/04 06:54:22;;;;;;;5.35;3.72;;;27.50;99.90;;;;;;5056299;28;20434;-70
2023/08/04 06:56:49;;;;;;;7.28;3.85;;;27.60;99.90;;;;;;5055767;28;20451;-70
2023/08/04 06:59:15;;;;;;;7.50;3.63;;;27.60;99.90;;;;;;5043520;28;20515;-70
2023/08/04 07:01:41;;;;;;;7.70;4.15;;;27.70;99.90;;;;;;5059248;28;20418;-69
2023/08/04 07:04:08;;;;;;;7.93;4.03;;;27.80;99.90;;;;;;5057100;28;20473;-69
2023/08/04 07:06:34;;;;;;;8.18;4.00;;;27.90;99.90;;;;;;5059548;28;20558;-69
2023/08/04 07:09:00;;;;;;;6.87;4.10;;;28.00;99.90;;;;;;5068417;28;20521;-69
2023/08/04 07:11:26;;;;;;;7.27;3.73;;;28.00;99.90;;;;;;5057266;28;20413;-69
2023/08/04 07:13:52;;;;;;;9.00;3.90;;;28.00;99.90;;;;;;5057697;28;21223;-69
2023/08/04 07:16:19;;;;;;;5.83;3.50;;;28.10;99.90;;;;;;5057724;28;20429;-69
2023/08/04 07:18:45;;;;;;;8.05;4.20;;;28.20;99.90;;;;;;5058249;28;20487;-69
2023/08/04 07:21:13;;;;;;;8.25;4.05;;;28.30;99.90;;;;;;5056446;28;20490;-70
2023/08/04 07:23:41;;;;;;;7.20;3.70;;;28.40;99.90;;;;;;5066816;28;20426;-70
2023/08/04 07:26:09;;;;;;;8.53;4.10;;;28.50;99.90;;;;;;5053410;28;20439;-70
2023/08/04 07:28:37;;;;;;;10.30;4.18;;;28.60;99.90;;;;;;5053790;28;20422;-70
2023/08/04 07:31:09;;;;;;;6.78;3.80;;;28.70;99.90;;;;;;5056967;28;20427;-70
2023/08/04 07:33:36;;;;;;;9.07;4.15;;;28.80;99.90;;;;;;5048728;28;20409;-70
2023/08/04 07:36:04;;;;;;;8.90;3.83;;;28.90;99.90;;;;;;5049811;28;20467;-70
2023/08/04 07:38:31;;;;;;;8.48;4.00;;;28.90;99.90;;;;;;5054149;28;20419;-70
2023/08/04 07:40:58;;;;;;;8.07;4.15;;;29.10;99.90;;;;;;5058476;28;20412;-70
2023/08/04 07:43:25;;;;;;;6.47;3.92;;;29.20;99.90;;;;;;5058037;28;20912;-70
2023/08/04 07:45:53;;;;;;;7.82;4.05;;;29.20;99.90;;;;;;5055672;28;20877;-71
2023/08/04 07:48:20;;;;;;;8.95;3.78;;;29.40;99.90;;;;;;5060349;28;20834;-70
2023/08/04 07:50:50;;;;;;;8.70;3.88;;;29.40;99.90;;;;;;5058660;28;20421;-70
2023/08/04 07:53:16;;;;;;;10.33;3.90;;;29.50;99.90;;;;;;5068721;28;20566;-70
2023/08/04 07:55:57;;;;;;;6.68;3.83;;;29.50;99.90;;;;;;5040015;28;20979;-70
2023/08/04 07:58:24;;;;;;;8.00;3.70;;;29.70;99.90;;;;;;5054880;28;20421;-70
2023/08/04 08:00:50;;;;;;;8.43;4.03;;;29.80;99.90;;;;;;5058499;28;20425;-70
2023/08/04 08:03:17;;;;;;;10.13;4.22;;;29.90;99.90;;;;;;5055979;28;20408;-70
2023/08/04 08:05:43;;;;;;;9.07;4.00;;;30.00;99.90;;;;;;5072756;28;20420;-70
2023/08/04 08:08:10;;;;;;;8.55;4.18;;;30.10;99.90;;;;;;5058721;28;20415;-70
2023/08/04 08:10:36;;;;;;;9.02;3.83;;;30.10;99.90;;;;;;5053042;28;21270;-70
2023/08/04 08:13:03;;;;;;;12.23;4.20;;;30.20;99.90;;;;;;5057247;28;20407;-70
2023/08/04 08:15:29;;;;;;;11.57;4.28;;;30.20;99.90;;;;;;5058890;28;20458;-70
2023/08/04 08:17:55;;;;;;;11.43;4.03;;;30.30;99.90;;;;;;5052439;28;20422;-70
2023/08/04 08:20:22;;;;;;;9.15;4.10;;;30.30;99.90;;;;;;5040144;28;20872;-70
2023/08/04 08:22:48;;;;;;;10.02;4.20;;;30.50;99.90;;;;;;5058263;28;20407;-70
2023/08/04 08:25:14;;;;;;;10.55;4.53;;;30.50;99.90;;;;;;5057903;28;20421;-70
2023/08/04 08:27:41;;;;;;;9.88;4.30;;;30.60;99.90;;;;;;5058648;28;20959;-70
2023/08/04 08:30:08;;;;;;;8.25;4.07;;;30.60;99.90;;;;;;5057834;28;20468;-70
2023/08/04 08:32:34;;;;;;;8.27;4.13;;;30.70;99.90;;;;;;5072048;28;20408;-70
2023/08/04 08:35:00;;;;;;;8.35;4.05;;;30.70;99.90;;;;;;5056923;28;20440;-70
2023/08/04 08:37:26;;;;;;;14.77;4.38;;;30.80;99.90;;;;;;5054370;28;21050;-70
2023/08/04 08:39:53;;;;;;;10.52;4.40;;;30.90;99.90;;;;;;5072454;28;20448;-70
2023/08/04 08:42:19;;;;;;;9.27;4.32;;;30.90;99.90;;;;;;5057129;28;20560;-71
2023/08/04 08:44:45;;;;;;;10.82;4.22;;;31.00;99.90;;;;;;5069848;28;20415;-71
2023/08/04 08:47:13;;;;;;;11.73;4.40;;;31.10;99.90;;;;;;5054817;28;21182;-70
2023/08/04 08:49:46;;;;;;;9.40;3.80;;;31.20;99.90;;;;;;5057201;28;20419;-70
2023/08/04 08:52:13;;;;;;;9.77;4.25;;;31.20;99.90;;;;;;5039766;28;20453;-70
2023/08/04 08:55:14;;;;;;;12.10;4.20;;;31.30;99.90;;;;;;5056884;28;20420;-70
2023/08/04 08:57:41;;;;;;;8.80;3.90;;;31.40;99.90;;;;;;5057084;28;20404;-70
2023/08/04 09:00:08;;;;;;;13.10;4.37;;;31.50;99.90;;;;;;5060320;28;20833;-71
2023/08/04 09:02:36;;;;;;;7.88;4.10;;;31.50;99.90;;;;;;5057563;28;20477;-70
2023/08/04 09:05:05;;;;;;;10.57;4.10;;;31.70;99.90;;;;;;5055195;28;20500;-70
2023/08/04 09:07:31;;;;;;;8.73;4.32;;;31.80;99.90;;;;;;5050138;28;20525;-71
2023/08/04 09:10:01;;;;;;;9.70;4.00;;;31.80;99.90;;;;;;5057574;28;20411;-71
2023/08/04 09:12:28;;;;;;;6.97;3.75;;;32.00;99.90;;;;;;5067780;28;20490;-70
2023/08/04 09:14:56;;;;;;;11.60;4.55;;;32.10;99.90;;;;;;5050694;28;20409;-70
2023/08/04 09:17:41;;;;;;;11.98;4.20;;;32.20;99.90;;;;;;5050318;28;20464;-70
2023/08/04 09:20:10;;;;;;;11.25;4.00;;;32.20;99.90;;;;;;5047256;28;20510;-70
2023/08/04 09:22:44;;;;;;;10.03;3.93;;;32.30;99.90;;;;;;5051665;28;20432;-70
2023/08/04 09:25:11;;;;;;;8.00;3.80;;;32.40;99.90;;;;;;5060443;28;20810;-70
2023/08/04 09:27:41;;;;;;;9.77;3.87;;;32.50;99.90;;;;;;5057272;28;20414;-70
2023/08/04 09:30:10;;;;;;;8.85;4.00;;;32.70;99.90;;;;;;5058536;28;20906;-70
2023/08/04 09:32:51;;;;;;;9.10;4.00;;;32.80;99.90;;;;;;5055691;28;20408;-70
2023/08/04 09:35:18;;;;;;;6.95;3.78;;;32.80;99.90;;;;;;5059787;28;20492;-70
2023/08/04 09:37:44;;;;;;;8.60;3.77;;;32.90;99.90;;;;;;5058699;28;20411;-70
2023/08/04 09:40:20;;;;;;;7.80;3.60;;;32.90;99.90;;;;;;5041886;28;20505;-70
2023/08/04 09:42:47;;;;;;;11.67;4.20;;;32.90;99.90;;;;;;5059808;28;20770;-70
2023/08/04 09:45:18;;;;;;;8.73;3.72;;;33.00;99.90;;;;;;5054897;28;20405;-71
2023/08/04 09:47:49;;;;;;;9.48;4.07;;;33.10;99.90;;;;;;5058353;28;20418;-71
2023/08/04 09:50:19;;;;;;;10.55;3.80;;;33.20;99.90;;;;;;5043524;28;20475;-71
2023/08/04 09:52:45;;;;;;;7.90;4.13;;;33.30;99.90;;;;;;5056857;28;20496;-71
2023/08/04 09:55:11;;;;;;;9.63;3.90;;;33.40;99.90;;;;;;5048090;28;20408;-71
2023/08/04 09:57:39;;;;;;;9.52;3.97;;;33.50;99.90;;;;;;5032665;28;21014;-71
2023/08/04 10:00:11;;;;;;;11.25;3.85;;;33.60;99.90;;;;;;5042218;28;20396;-70
2023/08/04 10:02:38;;;;;;;6.93;3.80;;;33.60;99.90;;;;;;5059590;28;20415;-70
2023/08/04 10:05:06;;;;;;;8.95;4.00;;;33.70;99.90;;;;;;5057452;28;21172;-70
2023/08/04 10:07:33;;;;;;;10.65;3.92;;;33.80;99.90;;;;;;5055792;28;20572;-70
2023/08/04 10:10:03;;;;;;;8.05;3.97;;;33.80;99.90;;;;;;5055604;28;20516;-70
2023/08/04 10:12:32;;;;;;;7.68;3.92;;;33.90;99.40;;;;;;5061247;28;20404;-70
2023/08/04 10:14:58;;;;;;;9.63;3.97;;;33.90;99.80;;;;;;5060783;28;20480;-70
2023/08/04 10:17:27;;;;;;;7.75;4.10;;;33.90;99.90;;;;;;5048211;28;20420;-70
2023/08/04 10:20:09;;;;;;;8.73;3.80;;;34.00;99.90;;;;;;5063959;28;20532;-70
2023/08/04 10:22:43;;;;;;;9.75;3.95;;;34.00;99.90;;;;;;5046764;28;20504;-70
2023/08/04 10:25:16;;;;;;;9.57;4.00;;;34.10;99.90;;;;;;5060965;28;20469;-71
2023/08/04 10:27:51;;;;;;;9.20;3.80;;;34.10;99.90;;;;;;5060377;28;20885;-70
2023/08/04 10:30:19;;;;;;;7.28;3.65;;;34.10;99.90;;;;;;5059741;28;20452;-70
2023/08/04 10:32:47;;;;;;;9.95;4.13;;;34.00;99.80;;;;;;5058783;28;20411;-70
2023/08/04 10:35:19;;;;;;;10.77;4.13;;;34.00;99.90;;;;;;5044932;28;20417;-70
2023/08/04 10:37:55;;;;;;;11.68;4.10;;;34.00;99.90;;;;;;5060349;28;20766;-70
2023/08/04 10:40:33;;;;;;;7.78;4.03;;;33.90;99.90;;;;;;5059542;28;20790;-70
2023/08/04 10:43:08;;;;;;;9.05;3.83;;;33.90;99.90;;;;;;5059844;28;20517;-70
2023/08/04 10:46:09;;;;;;;7.90;4.00;;;33.90;99.90;;;;;;5051165;28;21202;-70
2023/08/04 10:48:38;;;;;;;7.88;3.83;;;33.90;99.90;;;;;;5057184;28;20411;-70
2023/08/04 10:51:05;;;;;;;11.73;4.07;;;33.90;99.70;;;;;;5052868;28;20485;-70
2023/08/04 10:53:31;;;;;;;8.32;3.80;;;34.00;99.40;;;;;;5045815;28;20413;-70
2023/08/04 10:56:00;;;;;;;7.10;3.72;;;34.00;99.60;;;;;;5054371;28;20524;-70
2023/08/04 10:58:28;;;;;;;9.07;3.58;;;34.00;99.30;;;;;;5056836;28;20466;-72
2023/08/04 11:00:56;;;;;;;10.65;3.90;;;34.10;98.90;;;;;;5056363;28;20419;-72
2023/08/04 11:03:36;;;;;;;9.82;3.90;;;34.10;98.30;;;;;;5057522;28;20777;-72
2023/08/04 11:06:04;;;;;;;9.85;3.53;;;34.10;98.40;;;;;;5055097;28;21235;-72
2023/08/04 11:08:32;;;;;;;10.88;3.80;;;34.10;97.00;;;;;;5055722;28;20473;-72
2023/08/04 11:10:58;;;;;;;8.63;3.55;;;34.10;97.60;;;;;;5055821;28;20421;-72
2023/08/04 11:13:26;;;;;;;9.88;3.70;;;34.10;97.30;;;;;;5055716;28;20485;-73
2023/08/04 11:15:53;;;;;;;11.02;3.80;;;34.10;97.40;;;;;;5056081;28;20415;-72
2023/08/04 11:18:29;;;;;;;8.68;3.63;;;34.10;97.80;;;;;;5058753;28;20441;-72
2023/08/04 11:21:01;;;;;;;6.55;3.58;;;34.10;97.30;;;;;;5054581;28;20415;-72
2023/08/04 11:23:30;;;;;;;8.43;3.67;;;34.10;97.40;;;;;;5054804;28;20500;-73
2023/08/04 11:25:58;;;;;;;8.90;3.80;;;34.10;97.30;;;;;;5059582;28;20404;-73
2023/08/04 11:28:25;;;;;;;7.13;3.58;;;34.00;97.10;;;;;;5072916;28;20448;-73
2023/08/04 11:31:03;;;;;;;9.40;3.78;;;34.10;96.10;;;;;;5059965;28;20439;-72
2023/08/04 11:33:29;;;;;;;6.22;3.40;;;34.00;96.00;;;;;;5062524;28;20795;-72
2023/08/04 11:35:56;;;;;;;11.57;3.83;;;34.10;95.70;;;;;;5059574;28;20894;-72
2023/08/04 11:38:22;;;;;;;8.00;3.50;;;34.10;95.70;;;;;;5074058;28;20405;-72
2023/08/04 11:40:59;;;;;;;11.15;3.67;;;34.10;95.30;;;;;;5056331;28;20495;-72
2023/08/04 11:43:27;;;;;;;6.60;3.40;;;34.20;95.30;;;;;;5055726;28;21328;-72
2023/08/04 11:45:56;;;;;;;9.77;3.78;;;34.20;94.70;;;;;;5061954;28;20454;-72
2023/08/04 11:48:24;;;;;;;6.57;3.50;;;34.10;94.30;;;;;;5060120;28;20422;-72
2023/08/04 11:50:54;;;;;;;9.90;3.90;;;34.20;94.80;;;;;;5061546;28;20441;-72
2023/08/04 11:53:21;;;;;;;9.80;3.50;;;34.20;96.00;;;;;;5058945;28;20499;-72
2023/08/04 11:55:59;;;;;;;11.55;3.95;;;34.20;95.40;;;;;;5050120;28;20466;-73
2023/08/04 11:58:43;;;;;;;9.50;3.40;;;34.20;95.90;;;;;;5055989;28;20403;-73
2023/08/04 12:02:06;;;;;;;11.30;3.70;;;34.20;94.90;;;;;;5049841;28;20474;-72
2023/08/04 12:04:32;;;;;;;7.55;3.05;;;34.10;94.50;;;;;;5052514;28;20502;-72
2023/08/04 12:07:04;;;;;;;8.85;3.50;;;34.10;92.20;;;;;;5056516;28;20399;-72
2023/08/04 12:09:31;;;;;;;6.90;3.35;;;34.10;94.60;;;;;;5057417;28;20910;-72
2023/08/04 12:11:57;;;;;;;7.85;3.60;;;34.10;94.90;;;;;;5055227;28;20996;-73
2023/08/04 12:14:24;;;;;;;9.85;3.35;;;34.20;95.20;;;;;;5058154;28;20532;-72
2023/08/04 12:17:01;;;;;;;6.30;3.13;;;34.20;93.30;;;;;;5069304;28;20519;-72
2023/08/04 12:19:30;;;;;;;7.50;3.33;;;34.10;91.80;;;;;;5050232;28;20425;-72
2023/08/04 12:22:03;;;;;;;9.07;3.33;;;34.20;93.40;;;;;;5052099;28;20504;-72
2023/08/04 12:24:31;;;;;;;7.88;3.50;;;34.10;93.60;;;;;;5053617;28;20420;-72
2023/08/04 12:26:58;;;;;;;4.95;3.20;;;34.20;93.60;;;;;;5057793;28;20455;-72
2023/08/04 12:29:24;;;;;;;11.07;3.23;;;34.10;92.80;;;;;;5048040;28;20423;-72
2023/08/04 12:31:51;;;;;;;8.82;3.70;;;34.20;93.10;;;;;;5054040;28;20410;-73
2023/08/04 12:34:17;;;;;;;6.47;3.50;;;34.20;94.10;;;;;;5037016;28;20416;-73
2023/08/04 12:36:44;;;;;;;7.53;3.67;;;34.10;94.00;;;;;;5056689;28;20416;-73
2023/08/04 12:39:10;;;;;;;8.00;3.78;;;34.10;94.20;;;;;;5052832;28;20813;-72
2023/08/04 12:41:37;;;;;;;8.18;3.53;;;34.10;94.50;;;;;;5052577;28;20825;-73
2023/08/04 12:44:03;;;;;;;8.47;3.80;;;34.10;94.60;;;;;;5051035;28;20973;-73
2023/08/04 12:46:30;;;;;;;7.93;3.47;;;34.10;94.70;;;;;;5049036;28;20990;-72
2023/08/04 12:48:57;;;;;;;8.23;3.70;;;34.00;94.00;;;;;;5051673;28;20415;-72
2023/08/04 12:51:24;;;;;;;8.90;3.90;;;34.00;93.90;;;;;;5052917;28;20415;-72